Nelson, Canada
Current Conditions -  °F | °C
As of 5:00 PM on Monday 24 Nov 2014 (Local Time) from CYCG Reporting Station
Light Snow Light Snow  
Wind Chill: 26°   Ceiling: 3200
Heat Index: 34°   Visibility: 4mi
Dew Point: 32°   Wind: 10mph
Humidity: 93%   Direction: 180°S
Pressure: 30.18"   Gusts: NA
Location:  49.48°N, 117.28°W
Report Text: CYCG 250100Z 18009KT 4SM -SN FEW003 SCT015 OVC032 01/M00 A3018 RMK SF2SC2SC4 LAST OBS/NEXT 251400UTC PRESFR SLP239
Loading
Personal Weather Stations






























Interactive Weather Map New forecast layout! Learn more

10-Day Weather Forecast

Advertisements
Track Severe Weather on mobile